Time;durP1;ratioP1;P1;durP2;ratioP2;P2;SDS_P1;SDS_P2;PMS_P1;PMS_P2;Temp;Humidity;BMP_temperature;BMP_pressure;BME280_temperature;BME280_humidity;BME280_pressure;Samples;Min_cycle;Max_cycle;Signal;HPM_P1;HPM_P2
2024/03/12 00:00:22;;;;;;;3.50;3.20;;;;;;;6.75;71.84;99962.06;2501315;28;20047;-77
2024/03/12 00:01:40;;;;;;;7.40;3.92;;;;;;;6.76;71.68;99962.09;2499610;28;20047;-76
2024/03/12 00:02:53;;;;;;;3.45;3.17;;;;;;;6.79;71.73;99958.63;2500217;28;20059;-76
2024/03/12 00:04:08;;;;;;;3.78;3.30;;;;;;;6.81;71.68;99967.22;2500801;28;20050;-77
2024/03/12 00:05:22;;;;;;;3.72;3.40;;;;;;;6.83;71.85;99968.09;2500533;28;20499;-76
2024/03/12 00:06:37;;;;;;;4.47;3.58;;;;;;;6.88;71.64;99968.94;2501065;28;20158;-77
2024/03/12 00:07:51;;;;;;;4.47;3.92;;;;;;;6.90;71.55;99972.38;2501213;28;20071;-77
2024/03/12 00:09:06;;;;;;;3.55;3.25;;;;;;;6.93;71.76;99967.19;2500072;28;20519;-76
2024/03/12 00:10:19;;;;;;;6.22;3.58;;;;;;;6.95;71.26;99970.63;2499736;28;20039;-76
2024/03/12 00:11:34;;;;;;;5.13;4.03;;;;;;;6.97;71.60;99974.09;2500807;28;20093;-76
2024/03/12 00:12:49;;;;;;;3.75;3.17;;;;;;;6.99;71.58;99972.31;2501385;28;20154;-77
2024/03/12 00:14:04;;;;;;;3.78;3.08;;;;;;;7.03;71.44;99973.19;2500739;28;20047;-77
2024/03/12 00:15:18;;;;;;;7.45;3.85;;;;;;;7.05;71.56;99975.75;2500166;28;20054;-77
2024/03/12 00:16:34;;;;;;;3.75;3.22;;;;;;;7.07;71.55;99971.44;2500888;28;20066;-76
2024/03/12 00:17:50;;;;;;;4.13;3.70;;;;;;;7.07;71.52;99974.03;2499401;28;20169;-77
2024/03/12 00:19:05;;;;;;;4.00;3.60;;;;;;;7.07;71.54;99968.84;2500019;28;20130;-77
2024/03/12 00:20:24;;;;;;;5.55;4.10;;;;;;;7.09;71.36;99964.50;2500276;28;20571;-76
2024/03/12 00:21:38;;;;;;;3.20;2.90;;;;;;;7.10;71.47;99968.81;2499917;28;20053;-76
2024/03/12 00:22:52;;;;;;;4.13;3.42;;;;;;;7.09;71.24;99967.97;2499986;28;20444;-76
2024/03/12 00:24:07;;;;;;;5.43;3.90;;;;;;;7.09;71.09;99962.78;2499958;28;20056;-76
2024/03/12 00:25:20;;;;;;;3.60;3.30;;;;;;;7.10;70.82;99968.81;2499531;28;20063;-77
2024/03/12 00:26:35;;;;;;;3.95;3.17;;;;;;;7.08;70.75;99965.41;2499292;28;20065;-76
2024/03/12 00:27:50;;;;;;;6.65;4.35;;;;;;;7.05;70.46;99979.25;2501249;28;20058;-76
2024/03/12 00:29:05;;;;;;;4.18;3.33;;;;;;;7.03;70.64;99967.16;2499571;28;20081;-77
2024/03/12 00:30:19;;;;;;;4.72;3.30;;;;;;;6.99;70.68;99967.13;2500286;28;20054;-76
2024/03/12 00:31:33;;;;;;;3.50;3.20;;;;;;;6.96;70.50;99977.53;2499330;28;20042;-77
2024/03/12 00:32:47;;;;;;;3.72;3.03;;;;;;;6.92;70.73;99978.44;2500302;28;20051;-76
2024/03/12 00:34:04;;;;;;;8.07;3.72;;;;;;;6.89;70.80;99978.47;2500553;28;20409;-77
2024/03/12 00:35:18;;;;;;;4.20;3.08;;;;;;;6.84;70.84;99972.44;2500708;28;20055;-76
2024/03/12 00:36:32;;;;;;;3.00;2.65;;;;;;;6.82;70.92;99979.34;2500326;28;20061;-76
2024/03/12 00:37:47;;;;;;;3.58;3.25;;;;;;;6.80;70.84;99977.63;2499515;28;20053;-76
2024/03/12 00:39:02;;;;;;;5.00;3.53;;;;;;;6.77;70.99;99984.53;2501101;28;20149;-77
2024/03/12 00:40:16;;;;;;;4.00;3.60;;;;;;;6.75;71.06;99980.22;2500912;28;20429;-77
2024/03/12 00:41:31;;;;;;;5.15;4.30;;;;;;;6.72;71.06;99980.25;2499757;28;20452;-76
2024/03/12 00:42:44;;;;;;;3.95;3.55;;;;;;;6.70;71.05;99984.56;2499750;28;20059;-76
2024/03/12 00:43:59;;;;;;;3.72;3.42;;;;;;;6.66;71.06;99988.91;2503002;28;20110;-76
2024/03/12 00:45:14;;;;;;;4.85;4.05;;;;;;;6.63;71.33;99978.53;2503335;28;20051;-76
2024/03/12 00:46:28;;;;;;;7.80;3.60;;;;;;;6.61;71.25;99987.19;2502505;28;20070;-76
2024/03/12 00:47:42;;;;;;;7.13;3.95;;;;;;;6.59;71.43;99992.38;2502293;28;20492;-76
2024/03/12 00:48:57;;;;;;;6.65;4.45;;;;;;;6.58;71.52;99994.97;2494935;28;20055;-76
2024/03/12 00:50:12;;;;;;;3.70;3.15;;;;;;;6.57;71.50;99988.94;2502860;28;20043;-76
2024/03/12 00:51:29;;;;;;;5.25;4.43;;;;;;;6.56;71.67;99987.22;2502753;28;20463;-76
2024/03/12 00:52:43;;;;;;;4.18;3.80;;;;;;;6.58;71.56;100000.16;2502975;28;20523;-76
2024/03/12 00:53:58;;;;;;;3.65;3.28;;;;;;;6.59;71.82;99991.53;2494645;28;20487;-76
2024/03/12 00:55:16;;;;;;;4.72;4.32;;;;;;;6.59;71.80;99992.38;2503366;28;20407;-76
2024/03/12 00:56:32;;;;;;;4.28;3.88;;;;;;;6.62;71.99;100007.06;2503126;28;20074;-76
2024/03/12 00:57:48;;;;;;;3.83;3.53;;;;;;;6.66;71.92;99994.09;2502498;28;20047;-76
2024/03/12 00:59:02;;;;;;;6.40;4.82;;;;;;;6.69;71.71;99994.09;2503321;28;20051;-76
2024/03/12 01:00:17;;;;;;;4.32;3.95;;;;;;;6.71;71.82;99997.53;2503292;28;20039;-77
2024/03/12 01:01:31;;;;;;;7.43;5.00;;;;;;;6.73;71.74;100000.13;2502765;28;20050;-76
2024/03/12 01:02:48;;;;;;;4.82;3.55;;;;;;;6.73;71.46;99998.38;2503091;28;20046;-76
2024/03/12 01:04:03;;;;;;;3.88;3.58;;;;;;;6.74;71.48;99996.66;2502874;28;20559;-76
2024/03/12 01:05:20;;;;;;;3.47;3.13;;;;;;;6.73;71.33;100000.13;2502617;28;20054;-76
2024/03/12 01:06:35;;;;;;;6.93;4.15;;;;;;;6.72;71.61;99999.25;2503131;28;20062;-76
2024/03/12 01:07:48;;;;;;;3.78;3.45;;;;;;;6.73;71.52;100000.13;2503237;28;20142;-76
2024/03/12 01:09:06;;;;;;;4.72;3.60;;;;;;;6.71;71.44;100007.03;2503220;28;20055;-77
2024/03/12 01:10:20;;;;;;;4.35;3.95;;;;;;;6.70;71.29;100006.16;2502796;28;20058;-77
2024/03/12 01:11:37;;;;;;;4.53;4.05;;;;;;;6.69;71.38;99998.41;2503022;28;20709;-76
2024/03/12 01:12:51;;;;;;;5.90;3.97;;;;;;;6.67;71.39;100006.19;2503159;28;20050;-77
2024/03/12 01:14:05;;;;;;;5.13;3.60;;;;;;;6.67;71.21;100005.34;2502738;28;20066;-76
2024/03/12 01:15:20;;;;;;;4.60;3.20;;;;;;;6.65;71.28;99999.28;2503352;28;20054;-77
2024/03/12 01:16:34;;;;;;;4.05;3.65;;;;;;;6.60;71.32;100003.63;2503075;28;20457;-77
2024/03/12 01:17:48;;;;;;;4.18;3.78;;;;;;;6.59;71.47;100002.75;2502494;28;20046;-77
2024/03/12 01:19:02;;;;;;;4.85;3.10;;;;;;;6.57;71.36;100001.03;2502742;28;20097;-77
2024/03/12 01:20:20;;;;;;;3.97;3.53;;;;;;;6.54;71.74;100004.50;2503283;28;20485;-77
2024/03/12 01:21:35;;;;;;;3.50;3.20;;;;;;;6.54;71.55;100005.34;2503331;28;20061;-76
2024/03/12 01:22:50;;;;;;;6.10;3.60;;;;;;;6.53;71.68;99998.47;2502780;28;20438;-77
2024/03/12 01:24:05;;;;;;;5.15;3.50;;;;;;;6.55;71.78;99999.28;2502804;28;20047;-76
2024/03/12 01:25:21;;;;;;;3.67;3.38;;;;;;;6.54;71.65;100002.75;2502433;28;20510;-76
2024/03/12 01:26:35;;;;;;;5.85;3.95;;;;;;;6.53;71.88;100000.16;2502750;28;20050;-76
2024/03/12 01:27:50;;;;;;;3.85;3.20;;;;;;;6.52;71.72;100004.50;2502819;28;20047;-76
2024/03/12 01:29:05;;;;;;;5.10;2.75;;;;;;;6.49;71.84;100004.50;2502735;28;20227;-76
2024/03/12 01:30:20;;;;;;;6.00;4.00;;;;;;;6.49;71.84;100001.06;2502320;28;20050;-76
2024/03/12 01:31:35;;;;;;;6.05;3.50;;;;;;;6.47;71.79;100007.97;2502735;28;20054;-76
2024/03/12 01:32:51;;;;;;;4.60;3.70;;;;;;;6.47;71.87;100001.03;2502600;28;20066;-76
2024/03/12 01:34:06;;;;;;;5.82;5.22;;;;;;;6.46;71.92;99999.34;2502209;28;20485;-76
2024/03/12 01:35:24;;;;;;;8.73;3.80;;;;;;;6.45;71.90;100005.38;2502846;28;20059;-76
2024/03/12 01:36:39;;;;;;;7.32;4.10;;;;;;;6.44;71.99;100002.78;2501878;28;20137;-76
2024/03/12 01:37:53;;;;;;;9.90;3.53;;;;;;;6.42;71.98;99999.34;2501209;28;20050;-76
2024/03/12 01:39:08;;;;;;;3.83;3.50;;;;;;;6.41;71.98;100006.25;2502814;28;20073;-77
2024/03/12 01:40:22;;;;;;;4.25;3.55;;;;;;;6.37;72.15;100001.94;2502636;28;20496;-76
2024/03/12 01:41:41;;;;;;;6.68;3.80;;;;;;;6.36;72.32;99999.38;2502344;28;20050;-76
2024/03/12 01:42:57;;;;;;;4.55;3.72;;;;;;;6.34;72.38;99991.56;2502550;28;20051;-76
2024/03/12 01:44:11;;;;;;;3.33;3.03;;;;;;;6.32;72.14;99989.00;2502560;28;20588;-76
2024/03/12 01:45:25;;;;;;;3.63;3.33;;;;;;;6.32;72.29;99988.13;2502291;28;20043;-76
2024/03/12 01:46:39;;;;;;;3.85;3.55;;;;;;;6.31;72.42;99991.59;2502547;28;20449;-76
2024/03/12 01:47:55;;;;;;;6.70;4.30;;;;;;;6.28;72.41;99989.00;2502522;28;20058;-76
2024/03/12 01:49:09;;;;;;;10.45;3.80;;;;;;;6.28;72.59;99992.47;2502358;28;20125;-76
2024/03/12 01:50:26;;;;;;;6.43;4.28;;;;;;;6.27;72.61;99992.44;2501331;28;20070;-76
2024/03/12 01:51:41;;;;;;;4.90;3.83;;;;;;;6.28;72.51;99995.06;2502741;28;20058;-76
2024/03/12 01:52:58;;;;;;;8.15;5.82;;;;;;;6.29;72.55;99994.16;2502120;28;20051;-76
2024/03/12 01:54:14;;;;;;;3.28;2.97;;;;;;;6.31;72.74;100004.53;2501871;28;20045;-76
2024/03/12 01:55:27;;;;;;;3.95;3.58;;;;;;;6.34;72.70;100001.94;2502553;28;20051;-77
2024/03/12 01:56:41;;;;;;;7.05;4.10;;;;;;;6.39;72.80;99996.75;2503896;28;20065;-78
2024/03/12 01:57:55;;;;;;;6.05;4.22;;;;;;;6.43;72.85;99994.16;2505189;28;20047;-78
2024/03/12 01:59:09;;;;;;;4.38;3.45;;;;;;;6.49;72.76;100003.66;2504225;28;20046;-77
2024/03/12 02:00:25;;;;;;;7.10;4.53;;;;;;;6.55;72.66;100006.22;2502793;28;20481;-77
2024/03/12 02:01:39;;;;;;;4.85;3.97;;;;;;;6.60;72.48;99988.06;2502069;28;20105;-77
2024/03/12 02:02:53;;;;;;;3.75;3.45;;;;;;;6.61;72.06;100000.16;2502612;28;20050;-76
2024/03/12 02:04:09;;;;;;;5.32;3.70;;;;;;;6.62;72.00;100001.88;2502682;28;20578;-76
2024/03/12 02:05:22;;;;;;;4.55;3.67;;;;;;;6.61;72.08;100005.31;2502008;28;20125;-77
2024/03/12 02:06:38;;;;;;;4.50;3.70;;;;;;;6.60;72.03;100008.81;2502142;28;20051;-76
2024/03/12 02:07:53;;;;;;;8.02;4.95;;;;;;;6.58;71.85;100000.16;2502426;28;20058;-76
2024/03/12 02:09:12;;;;;;;4.85;3.72;;;;;;;6.58;72.03;100002.75;2502517;28;20053;-77
2024/03/12 02:10:25;;;;;;;4.30;3.90;;;;;;;6.59;72.15;100001.91;2502105;28;20046;-77
2024/03/12 02:11:40;;;;;;;4.55;3.20;;;;;;;6.60;72.16;100004.47;2502427;28;20074;-76
2024/03/12 02:12:54;;;;;;;5.30;3.75;;;;;;;6.62;72.18;100004.47;2501998;28;20061;-76
2024/03/12 02:14:08;;;;;;;4.00;3.65;;;;;;;6.65;72.17;100002.72;2501463;28;20062;-77
2024/03/12 02:15:22;;;;;;;4.65;3.75;;;;;;;6.69;72.30;100003.59;2502397;28;20054;-77
2024/03/12 02:16:38;;;;;;;4.60;3.83;;;;;;;6.73;72.18;100005.31;2502246;28;20078;-76
2024/03/12 02:17:52;;;;;;;3.92;3.53;;;;;;;6.75;71.98;100004.44;2501843;28;20098;-76
2024/03/12 02:19:08;;;;;;;7.15;4.38;;;;;;;6.76;71.78;100008.75;2502424;28;20232;-77
2024/03/12 02:20:22;;;;;;;4.88;4.30;;;;;;;6.78;71.93;100007.00;2502514;28;20050;-77
2024/03/12 02:21:37;;;;;;;4.20;3.80;;;;;;;6.81;71.51;100013.06;2502156;28;20043;-77
2024/03/12 02:22:53;;;;;;;3.63;3.28;;;;;;;6.83;72.11;100011.31;2502503;28;20058;-77
2024/03/12 02:24:09;;;;;;;6.40;4.10;;;;;;;6.86;71.98;100011.31;2502640;28;20057;-77
2024/03/12 02:25:23;;;;;;;10.77;3.75;;;;;;;6.89;71.87;100017.38;2502243;28;20049;-77
2024/03/12 02:26:37;;;;;;;4.38;3.35;;;;;;;6.92;71.71;100009.56;2502062;28;20053;-77
2024/03/12 02:27:51;;;;;;;6.25;3.85;;;;;;;6.96;71.88;100013.84;2502143;28;20397;-76
2024/03/12 02:29:07;;;;;;;6.97;3.45;;;;;;;6.98;71.73;100012.13;2502532;28;20053;-77
2024/03/12 02:30:21;;;;;;;4.15;3.75;;;;;;;7.03;71.48;100011.25;2501802;28;20050;-76
2024/03/12 02:31:35;;;;;;;3.65;3.35;;;;;;;7.04;71.43;100013.81;2501889;28;20074;-77
2024/03/12 02:32:49;;;;;;;3.90;3.58;;;;;;;7.06;71.41;100013.81;2502582;28;20189;-77
2024/03/12 02:34:04;;;;;;;4.22;3.83;;;;;;;7.08;71.40;100018.13;2502232;28;20488;-77
2024/03/12 02:35:18;;;;;;;3.55;3.25;;;;;;;7.11;71.33;100017.25;2502844;28;20511;-77
2024/03/12 02:36:36;;;;;;;5.65;3.92;;;;;;;7.13;71.29;100015.53;2502686;28;20054;-77
2024/03/12 02:37:50;;;;;;;4.07;3.65;;;;;;;7.15;71.15;100024.16;2502460;28;20058;-77
2024/03/12 02:39:06;;;;;;;4.53;4.10;;;;;;;7.18;71.23;100025.00;2503097;28;20466;-77
2024/03/12 02:40:21;;;;;;;4.10;3.72;;;;;;;7.19;71.08;100024.13;2503213;28;20646;-77
2024/03/12 02:41:35;;;;;;;5.28;4.25;;;;;;;7.21;71.46;100021.53;2502716;28;20047;-77
2024/03/12 02:42:49;;;;;;;5.97;4.22;;;;;;;7.22;71.13;100028.44;2502868;28;20043;-77
2024/03/12 02:44:03;;;;;;;3.70;3.40;;;;;;;7.22;70.92;100029.31;2503202;28;20444;-77
2024/03/12 02:45:20;;;;;;;4.72;3.20;;;;;;;7.25;70.78;100030.16;2502883;28;20066;-77
2024/03/12 02:46:34;;;;;;;5.20;4.65;;;;;;;7.27;70.49;100029.28;2502921;28;20051;-77
2024/03/12 02:47:48;;;;;;;8.18;3.85;;;;;;;7.28;70.65;100028.44;2503163;28;20063;-77
2024/03/12 02:49:03;;;;;;;6.10;4.03;;;;;;;7.31;70.65;100024.97;2502668;28;20512;-78
2024/03/12 02:50:18;;;;;;;8.18;4.28;;;;;;;7.32;70.56;100040.50;2502251;28;20046;-77
2024/03/12 02:51:32;;;;;;;3.80;3.50;;;;;;;7.34;70.69;100030.13;2502973;28;20058;-77
2024/03/12 02:52:46;;;;;;;5.47;4.07;;;;;;;7.35;70.38;100029.25;2502841;28;20501;-77
2024/03/12 02:54:00;;;;;;;4.13;3.72;;;;;;;7.36;70.55;100033.59;2502584;28;20050;-78
2024/03/12 02:55:14;;;;;;;4.03;3.70;;;;;;;7.36;70.36;100031.84;2503332;28;20122;-77
2024/03/12 02:56:30;;;;;;;5.95;4.15;;;;;;;7.37;70.37;100030.09;2503024;28;20042;-77
2024/03/12 02:57:44;;;;;;;4.53;3.67;;;;;;;7.38;70.07;100035.31;2502748;28;20102;-78
2024/03/12 02:58:58;;;;;;;3.85;3.55;;;;;;;7.38;70.29;100032.72;2504092;28;20055;-78
2024/03/12 03:00:12;;;;;;;7.18;5.47;;;;;;;7.41;70.13;100043.06;2506563;28;20054;-78
2024/03/12 03:01:27;;;;;;;4.90;3.45;;;;;;;7.43;70.13;100041.34;2504531;28;20082;-77
2024/03/12 03:02:41;;;;;;;5.28;4.05;;;;;;;7.43;70.10;100040.44;2504575;28;20070;-77
2024/03/12 03:03:57;;;;;;;4.50;4.10;;;;;;;7.46;70.27;100043.06;2504490;28;20046;-77
2024/03/12 03:05:10;;;;;;;3.42;2.95;;;;;;;7.48;70.19;100045.63;2504803;28;20137;-77
2024/03/12 03:06:25;;;;;;;5.05;3.33;;;;;;;7.49;70.11;100050.81;2504290;28;20047;-77
2024/03/12 03:07:40;;;;;;;7.15;5.65;;;;;;;7.50;70.07;100046.47;2504664;28;20141;-77
2024/03/12 03:08:54;;;;;;;4.28;3.33;;;;;;;7.50;69.84;100051.66;2504092;28;20046;-78
2024/03/12 03:10:09;;;;;;;4.20;3.80;;;;;;;7.50;69.76;100049.94;2504125;28;20054;-77
2024/03/12 03:11:24;;;;;;;3.83;3.47;;;;;;;7.52;69.93;100049.94;2504938;28;20428;-77
2024/03/12 03:12:38;;;;;;;6.32;4.28;;;;;;;7.51;70.09;100046.47;2504517;28;20047;-77
2024/03/12 03:13:53;;;;;;;3.30;3.08;;;;;;;7.52;69.92;100047.34;2504335;28;20167;-78
2024/03/12 03:15:07;;;;;;;4.43;3.95;;;;;;;7.53;69.79;100052.50;2504419;28;20055;-77
2024/03/12 03:16:22;;;;;;;3.42;3.10;;;;;;;7.54;70.12;100056.84;2503771;28;20081;-77
2024/03/12 03:17:35;;;;;;;4.95;4.50;;;;;;;7.54;69.93;100048.19;2503848;28;20134;-77
2024/03/12 03:18:50;;;;;;;3.70;3.40;;;;;;;7.54;69.95;100054.25;2504198;28;20062;-77
2024/03/12 03:20:05;;;;;;;4.38;3.50;;;;;;;7.54;69.86;100056.84;2503806;28;20435;-76
2024/03/12 03:21:19;;;;;;;4.05;3.50;;;;;;;7.56;69.72;100051.63;2503893;28;20078;-77
2024/03/12 03:22:33;;;;;;;4.75;4.25;;;;;;;7.56;69.68;100055.09;2504251;28;20050;-78
2024/03/12 03:23:47;;;;;;;5.30;3.88;;;;;;;7.57;69.82;100058.56;2504201;28;20609;-77
2024/03/12 03:25:00;;;;;;;4.15;3.45;;;;;;;7.58;69.90;100065.47;2504176;28;20055;-77
2024/03/12 03:26:15;;;;;;;4.35;3.95;;;;;;;7.57;69.87;100059.41;2503600;28;20415;-77
2024/03/12 03:27:28;;;;;;;5.63;4.43;;;;;;;7.57;69.67;100063.75;2504272;28;20423;-78
2024/03/12 03:28:44;;;;;;;4.90;3.78;;;;;;;7.58;69.89;100062.88;2504574;28;20047;-78
2024/03/12 03:29:59;;;;;;;6.72;4.45;;;;;;;7.57;69.74;100055.97;2503980;28;20062;-77
2024/03/12 03:31:13;;;;;;;5.65;4.28;;;;;;;7.56;69.50;100062.91;2504337;28;20130;-77
2024/03/12 03:32:28;;;;;;;4.90;3.58;;;;;;;7.57;69.56;100064.63;2504312;28;20049;-77
2024/03/12 03:33:47;;;;;;;5.72;3.65;;;;;;;7.55;69.52;100061.16;2503897;28;20047;-77
2024/03/12 03:35:02;;;;;;;4.00;3.60;;;;;;;7.55;69.67;100060.31;2503874;28;20058;-77
2024/03/12 03:36:16;;;;;;;4.68;3.80;;;;;;;7.55;69.72;100073.28;2503905;28;20046;-77
2024/03/12 03:37:34;;;;;;;7.85;4.70;;;;;;;7.55;69.85;100065.50;2503595;28;20061;-77
2024/03/12 03:38:49;;;;;;;3.50;3.20;;;;;;;7.55;69.85;100074.13;2504214;28;20055;-77
2024/03/12 03:40:04;;;;;;;4.68;4.03;;;;;;;7.56;69.89;100077.59;2503829;28;20424;-77
2024/03/12 03:41:19;;;;;;;4.32;3.92;;;;;;;7.55;69.90;100076.72;2503523;28;20508;-77
2024/03/12 03:42:33;;;;;;;7.18;4.45;;;;;;;7.55;70.05;100078.47;2504105;28;20050;-76
2024/03/12 03:43:48;;;;;;;4.18;3.42;;;;;;;7.53;69.74;100075.88;2503436;28;20054;-77
2024/03/12 03:45:02;;;;;;;3.83;3.30;;;;;;;7.53;69.78;100077.63;2503437;28;20061;-77
2024/03/12 03:46:17;;;;;;;4.07;3.70;;;;;;;7.52;70.00;100078.50;2502773;28;20054;-77
2024/03/12 03:47:34;;;;;;;4.47;3.88;;;;;;;7.51;70.15;100082.84;2503343;28;20054;-77
2024/03/12 03:48:49;;;;;;;7.57;5.50;;;;;;;7.49;69.93;100086.31;2503237;28;20122;-78
2024/03/12 03:50:03;;;;;;;4.32;3.85;;;;;;;7.47;70.02;100082.84;2503104;28;20062;-77
2024/03/12 03:51:18;;;;;;;4.22;3.83;;;;;;;7.46;69.90;100087.19;2503894;28;20529;-77
2024/03/12 03:52:31;;;;;;;6.13;4.93;;;;;;;7.45;69.95;100082.00;2503967;28;20051;-76
2024/03/12 03:53:46;;;;;;;4.93;3.75;;;;;;;7.43;70.37;100085.47;2503429;28;20057;-77
2024/03/12 03:54:59;;;;;;;3.83;3.53;;;;;;;7.41;70.33;100086.34;2504011;28;20050;-77
2024/03/12 03:56:15;;;;;;;4.78;4.07;;;;;;;7.39;70.25;100088.94;2504356;28;20054;-78
2024/03/12 03:57:28;;;;;;;4.10;3.80;;;;;;;7.38;70.37;100088.94;2503859;28;20057;-77
2024/03/12 03:58:44;;;;;;;4.93;3.90;;;;;;;7.35;70.39;100094.13;2503796;28;20508;-77
2024/03/12 03:59:58;;;;;;;5.35;4.05;;;;;;;7.32;70.50;100094.16;2503543;28;20134;-77
2024/03/12 04:01:14;;;;;;;4.97;4.03;;;;;;;7.28;70.58;100095.91;2503897;28;20075;-77
2024/03/12 04:02:27;;;;;;;4.97;4.45;;;;;;;7.25;70.64;100098.50;2503587;28;20471;-77
2024/03/12 04:03:42;;;;;;;4.43;4.03;;;;;;;7.21;70.58;100107.19;2503319;28;20053;-78
2024/03/12 04:04:55;;;;;;;7.53;4.50;;;;;;;7.18;70.77;100104.59;2503291;28;20054;-77
2024/03/12 04:06:10;;;;;;;5.45;4.68;;;;;;;7.16;70.71;100106.34;2503256;28;20085;-78
2024/03/12 04:07:25;;;;;;;4.10;3.70;;;;;;;7.13;71.22;100104.63;2503756;28;20053;-77
2024/03/12 04:08:39;;;;;;;5.05;4.55;;;;;;;7.13;71.30;100109.81;2503723;28;20046;-76
2024/03/12 04:09:54;;;;;;;5.68;4.97;;;;;;;7.11;71.13;100108.94;2503515;28;20054;-78
2024/03/12 04:11:09;;;;;;;5.05;4.55;;;;;;;7.10;71.41;100109.81;2503848;28;20059;-77
2024/03/12 04:12:24;;;;;;;5.75;4.60;;;;;;;7.10;71.46;100117.59;2503609;28;20047;-77
2024/03/12 04:13:40;;;;;;;6.57;5.50;;;;;;;7.09;71.55;100117.59;2503191;28;20043;-77
2024/03/12 04:14:53;;;;;;;4.25;3.72;;;;;;;7.09;71.59;100118.44;2501574;28;20138;-78
2024/03/12 04:16:10;;;;;;;5.35;4.30;;;;;;;7.07;71.63;100120.19;2503517;28;20070;-77
2024/03/12 04:17:23;;;;;;;5.03;4.53;;;;;;;7.05;71.70;100124.53;2503415;28;20057;-77
2024/03/12 04:18:38;;;;;;;5.85;4.85;;;;;;;7.04;71.80;100122.78;2504490;28;20043;-78
2024/03/12 04:19:51;;;;;;;5.80;5.03;;;;;;;7.03;71.81;100128.88;2505557;28;20051;-78
2024/03/12 04:21:06;;;;;;;5.15;4.72;;;;;;;7.02;72.12;100124.53;2505049;28;20138;-77
2024/03/12 04:22:19;;;;;;;6.47;5.15;;;;;;;7.03;72.08;100126.28;2504652;28;20042;-77
2024/03/12 04:23:34;;;;;;;6.45;5.63;;;;;;;7.01;72.04;100129.72;2505372;28;20059;-77
2024/03/12 04:24:47;;;;;;;7.38;4.85;;;;;;;7.00;72.09;100128.88;2505395;28;20051;-77
2024/03/12 04:26:01;;;;;;;6.00;4.13;;;;;;;6.98;71.89;100125.41;2504633;28;20445;-78
2024/03/12 04:27:15;;;;;;;5.10;4.32;;;;;;;6.95;72.15;100120.25;2505659;28;20051;-77
2024/03/12 04:28:29;;;;;;;6.68;4.85;;;;;;;6.93;72.16;100127.16;2505896;28;20180;-77
2024/03/12 04:29:43;;;;;;;6.70;4.68;;;;;;;6.90;71.98;100132.34;2507233;28;20047;-77
2024/03/12 04:30:58;;;;;;;5.72;5.20;;;;;;;6.86;72.43;100128.03;2505615;28;20057;-77
2024/03/12 04:32:13;;;;;;;5.72;5.10;;;;;;;6.82;72.49;100134.97;2511784;28;20046;-77
2024/03/12 04:33:27;;;;;;;7.45;5.32;;;;;;;6.80;72.43;100138.44;2513946;28;20043;-77
2024/03/12 04:34:40;;;;;;;5.35;4.60;;;;;;;6.78;72.55;100138.41;2505717;28;20047;-78
2024/03/12 04:35:55;;;;;;;5.65;5.07;;;;;;;6.77;72.80;100140.16;2507025;28;20125;-79
2024/03/12 04:37:12;;;;;;;5.78;5.18;;;;;;;6.75;72.79;100139.28;2505866;28;20050;-77
2024/03/12 04:38:30;;;;;;;6.25;5.30;;;;;;;6.73;72.82;100148.78;2503042;28;20053;-78
2024/03/12 04:39:44;;;;;;;5.38;4.80;;;;;;;6.72;72.65;100146.22;2503685;28;20050;-77
2024/03/12 04:40:57;;;;;;;6.40;5.22;;;;;;;6.70;72.85;100147.94;2503854;28;20051;-78
2024/03/12 04:42:13;;;;;;;7.28;4.78;;;;;;;6.68;72.93;100149.66;2503799;28;20452;-78
2024/03/12 04:43:26;;;;;;;5.25;4.65;;;;;;;6.66;73.21;100151.38;2504441;28;20073;-77
2024/03/12 04:44:42;;;;;;;5.93;4.85;;;;;;;6.65;73.27;100152.25;2504062;28;20047;-78
2024/03/12 04:45:56;;;;;;;7.03;4.70;;;;;;;6.64;73.15;100155.72;2503924;28;20053;-77
2024/03/12 04:47:10;;;;;;;6.20;5.50;;;;;;;6.65;73.49;100162.63;2504053;28;20055;-77
2024/03/12 04:48:25;;;;;;;5.95;4.97;;;;;;;6.65;73.55;100166.09;2504538;28;20050;-78
2024/03/12 04:49:40;;;;;;;6.43;4.80;;;;;;;6.66;73.58;100166.94;2503937;28;20130;-78
2024/03/12 04:50:54;;;;;;;9.00;5.93;;;;;;;6.67;73.67;100171.28;2504472;28;20147;-78
2024/03/12 04:52:08;;;;;;;6.55;4.95;;;;;;;6.68;73.73;100162.63;2504314;28;20086;-78
2024/03/12 04:53:22;;;;;;;6.10;5.03;;;;;;;6.68;73.70;100168.66;2504511;28;20043;-78
2024/03/12 04:54:37;;;;;;;5.28;4.70;;;;;;;6.68;73.65;100170.41;2504529;28;20101;-78
2024/03/12 04:55:51;;;;;;;6.45;5.60;;;;;;;6.70;73.62;100173.88;2504833;28;20488;-77
2024/03/12 04:57:07;;;;;;;6.40;4.68;;;;;;;6.70;73.86;100173.88;2504163;28;20141;-77
2024/03/12 04:58:20;;;;;;;6.03;5.45;;;;;;;6.71;73.89;100176.47;2503765;28;20047;-78
2024/03/12 04:59:34;;;;;;;5.78;5.10;;;;;;;6.71;73.83;100170.41;2504997;28;20047;-78
2024/03/12 05:00:48;;;;;;;6.95;5.60;;;;;;;6.73;74.10;100176.47;2505069;28;20058;-78
2024/03/12 05:02:02;;;;;;;8.05;5.57;;;;;;;6.73;73.98;100186.81;2504501;28;20074;-78
2024/03/12 05:03:17;;;;;;;6.38;5.63;;;;;;;6.73;73.81;100185.09;2505162;28;20050;-78
2024/03/12 05:04:33;;;;;;;6.70;4.90;;;;;;;6.74;74.00;100183.38;2505601;28;20051;-78
2024/03/12 05:05:46;;;;;;;5.68;5.00;;;;;;;6.74;74.28;100184.25;2505152;28;20051;-77
2024/03/12 05:07:00;;;;;;;5.60;4.70;;;;;;;6.75;74.03;100188.56;2504865;28;20055;-78
2024/03/12 05:08:14;;;;;;;6.68;5.97;;;;;;;6.76;74.28;100194.59;2505286;28;20051;-78
2024/03/12 05:09:28;;;;;;;6.85;5.20;;;;;;;6.75;74.17;100196.34;2504560;28;20560;-78
2024/03/12 05:10:42;;;;;;;5.63;4.55;;;;;;;6.76;74.41;100197.19;2504617;28;20143;-77
2024/03/12 05:11:56;;;;;;;6.95;5.47;;;;;;;6.77;74.18;100191.16;2505078;28;20116;-78
2024/03/12 05:13:10;;;;;;;7.55;4.65;;;;;;;6.78;74.39;100190.28;2505326;28;20055;-78
2024/03/12 05:14:24;;;;;;;9.02;5.40;;;;;;;6.77;74.18;100193.75;2503156;28;20051;-77
2024/03/12 05:15:39;;;;;;;7.05;4.95;;;;;;;6.78;74.05;100192.88;2503851;28;20069;-78
2024/03/12 05:16:54;;;;;;;7.82;4.72;;;;;;;6.79;74.18;100197.22;2502920;28;20070;-78
2024/03/12 05:18:08;;;;;;;5.85;5.25;;;;;;;6.80;74.21;100190.28;2502738;28;20067;-78
2024/03/12 05:19:24;;;;;;;5.57;4.45;;;;;;;6.80;74.10;100191.16;2503055;28;20157;-77
2024/03/12 05:20:39;;;;;;;5.47;4.80;;;;;;;6.80;74.16;100188.56;2503185;28;20122;-78
2024/03/12 05:21:53;;;;;;;5.20;4.70;;;;;;;6.80;74.26;100188.56;2502624;28;20057;-77
2024/03/12 05:23:10;;;;;;;5.90;4.93;;;;;;;6.80;74.22;100191.16;2502291;28;20137;-78
2024/03/12 05:24:24;;;;;;;6.40;5.40;;;;;;;6.81;74.31;100194.59;2502630;28;20129;-77
2024/03/12 05:25:42;;;;;;;7.57;5.82;;;;;;;6.80;74.33;100191.16;2502372;28;20521;-77
2024/03/12 05:26:59;;;;;;;5.95;5.13;;;;;;;6.79;74.40;100194.63;2502488;28;20467;-77
2024/03/12 05:28:13;;;;;;;6.53;5.57;;;;;;;6.78;74.35;100193.75;2502950;28;20082;-78
2024/03/12 05:29:36;;;;;;;5.97;5.18;;;;;;;6.80;74.66;100193.75;2502137;28;20075;-78
2024/03/12 05:30:49;;;;;;;5.72;4.70;;;;;;;6.78;74.44;100198.94;2502866;28;20055;-78
2024/03/12 05:32:17;;;;;;;5.35;4.85;;;;;;;6.81;74.40;100197.19;2502607;28;20140;-78
2024/03/12 05:33:38;;;;;;;6.65;4.40;;;;;;;6.82;74.58;100209.31;2502202;28;20050;-78
2024/03/12 05:34:58;;;;;;;5.95;4.80;;;;;;;6.82;74.67;100202.41;2503074;28;20081;-77
2024/03/12 05:36:14;;;;;;;7.10;4.90;;;;;;;6.84;74.59;100199.78;2502438;28;20597;-78
2024/03/12 05:37:40;;;;;;;5.00;4.45;;;;;;;6.84;74.83;100208.47;2502172;28;20101;-77
2024/03/12 05:38:55;;;;;;;8.32;4.05;;;;;;;6.85;74.86;100211.91;2502557;28;20055;-77
2024/03/12 05:40:16;;;;;;;6.65;5.47;;;;;;;6.85;74.81;100205.00;2503993;28;20130;-77
2024/03/12 05:41:48;;;;;;;5.45;4.78;;;;;;;6.85;74.95;100212.78;2503185;28;20204;-78
2024/03/12 05:49:12;;;;;;;5.93;5.30;;;;;;;6.87;75.23;100221.41;2503316;28;20418;-78
2024/03/12 05:50:26;;;;;;;6.03;5.40;;;;;;;6.87;75.32;100225.75;2502455;28;20051;-77
2024/03/12 05:51:42;;;;;;;6.55;4.55;;;;;;;6.88;75.42;100225.72;2502988;28;20138;-77
2024/03/12 05:52:56;;;;;;;5.55;3.97;;;;;;;6.88;75.28;100228.31;2502526;28;20051;-78
2024/03/12 05:54:10;;;;;;;6.97;5.38;;;;;;;6.88;75.59;100219.69;2502047;28;20586;-77
2024/03/12 05:55:24;;;;;;;4.95;4.45;;;;;;;6.89;75.47;100221.41;2502999;28;20054;-78
2024/03/12 05:56:39;;;;;;;6.90;5.43;;;;;;;6.90;75.86;100224.00;2502350;28;20073;-78
2024/03/12 05:57:53;;;;;;;5.85;4.63;;;;;;;6.92;75.85;100226.63;2502365;28;20082;-77
2024/03/12 05:59:08;;;;;;;8.40;5.53;;;;;;;6.93;75.70;100225.72;2502770;28;20467;-77
2024/03/12 06:00:21;;;;;;;5.57;5.07;;;;;;;6.92;75.93;100230.06;2502767;28;20046;-77